Time;durP1;ratioP1;P1;durP2;ratioP2;P2;SDS_P1;SDS_P2;PMS_P1;PMS_P2;Temp;Humidity;BMP_temperature;BMP_pressure;BME280_temperature;BME280_humidity;BME280_pressure;Samples;Min_cycle;Max_cycle;Signal;HPM_P1;HPM_P2
2023/03/25 00:01:54;;;;;;;5.10;1.40;;;;;5.10;93420.00;;;;7402810;19;20148;-77
2023/03/25 00:04:25;;;;;;;8.40;1.10;;;;;5.10;93421.00;;;;7401349;19;20164;-79
2023/03/25 00:07:00;;;;;;;4.53;1.10;;;;;5.20;93424.00;;;;7400600;19;20154;-80
2023/03/25 00:09:34;;;;;;;6.63;1.73;;;;;5.30;93418.00;;;;7397857;19;20164;-79
2023/03/25 00:12:15;;;;;;;5.73;1.37;;;;;5.00;93430.00;;;;7400911;19;20612;-81
2023/03/25 00:14:53;;;;;;;5.53;1.07;;;;;5.10;93418.00;;;;7399156;19;20137;-77
2023/03/25 00:17:30;;;;;;;6.00;1.30;;;;;5.10;93423.00;;;;7400266;19;20144;-78
2023/03/25 00:20:09;;;;;;;5.87;1.30;;;;;5.10;93421.00;;;;7403017;19;20136;-78
2023/03/25 00:22:46;;;;;;;7.10;1.43;;;;;5.10;93431.00;;;;7399279;19;20159;-78
2023/03/25 00:25:20;;;;;;;9.30;2.00;;;;;5.10;93440.00;;;;7389075;19;20200;-78
2023/03/25 00:27:49;;;;;;;6.20;1.60;;;;;5.10;93444.00;;;;7399811;19;20132;-81
2023/03/25 00:30:23;;;;;;;3.27;1.30;;;;;5.10;93432.00;;;;7401960;19;20128;-79
2023/03/25 00:32:56;;;;;;;9.43;1.37;;;;;5.00;93421.00;;;;7399810;19;20510;-78
2023/03/25 00:35:31;;;;;;;5.50;1.27;;;;;5.10;93429.00;;;;7398860;19;20133;-79
2023/03/25 00:38:11;;;;;;;6.33;1.00;;;;;5.10;93409.00;;;;7399846;19;20206;-80
2023/03/25 00:40:47;;;;;;;9.57;1.90;;;;;5.00;93407.00;;;;7398814;19;20153;-81
2023/03/25 00:43:21;;;;;;;4.37;1.40;;;;;4.90;93393.00;;;;7393060;19;20152;-79
2023/03/25 00:45:55;;;;;;;5.87;1.43;;;;;4.80;93400.00;;;;7394546;19;20160;-79
2023/03/25 00:48:29;;;;;;;7.63;1.03;;;;;4.80;93387.00;;;;7398251;19;20133;-81
2023/03/25 00:51:07;;;;;;;7.83;1.60;;;;;4.60;93363.00;;;;7396698;19;20612;-81
2023/03/25 00:53:41;;;;;;;6.37;1.40;;;;;4.70;93371.00;;;;7396074;19;20588;-80
2023/03/25 00:56:16;;;;;;;9.90;2.10;;;;;4.70;93371.00;;;;7397534;19;20149;-80
2023/03/25 00:58:44;;;;;;;7.83;1.20;;;;;4.70;93371.00;;;;7391560;19;20133;-79
2023/03/25 01:01:27;;;;;;;2.73;1.00;;;;;4.70;93384.00;;;;7392689;19;20608;-79
2023/03/25 01:04:01;;;;;;;7.87;1.60;;;;;4.60;93383.00;;;;7398684;19;20180;-78
2023/03/25 01:06:35;;;;;;;3.57;1.33;;;;;4.80;93386.00;;;;7399266;19;20145;-79
2023/03/25 01:09:17;;;;;;;7.23;1.47;;;;;4.60;93410.00;;;;7398808;19;20152;-78
2023/03/25 01:11:46;;;;;;;7.27;1.43;;;;;4.70;93397.00;;;;7398961;19;20644;-78
2023/03/25 01:14:23;;;;;;;7.57;1.47;;;;;4.70;93391.00;;;;7395618;19;20160;-78
2023/03/25 01:16:50;;;;;;;8.17;1.53;;;;;4.90;93375.00;;;;7401363;19;20138;-78
2023/03/25 01:19:24;;;;;;;4.17;1.10;;;;;4.80;93367.00;;;;7400009;19;20487;-78
2023/03/25 01:21:52;;;;;;;6.40;2.00;;;;;4.80;93367.00;;;;7396908;19;20623;-77
2023/03/25 01:24:26;;;;;;;7.37;1.37;;;;;4.80;93359.00;;;;7398057;19;20152;-77
2023/03/25 01:26:54;;;;;;;3.30;1.30;;;;;4.70;93355.00;;;;7398885;19;20157;-78
2023/03/25 01:29:28;;;;;;;4.57;1.30;;;;;4.70;93360.00;;;;7400592;19;20140;-80
2023/03/25 01:31:56;;;;;;;4.57;1.50;;;;;4.60;93368.00;;;;7398865;19;20196;-79
2023/03/25 01:34:32;;;;;;;6.40;1.40;;;;;4.60;93367.00;;;;7400482;19;20128;-78
2023/03/25 01:37:06;;;;;;;9.67;1.60;;;;;4.70;93364.00;;;;7397126;19;20169;-78
2023/03/25 01:39:48;;;;;;;9.30;1.53;;;;;4.70;93357.00;;;;7399279;19;20157;-78
2023/03/25 01:42:17;;;;;;;2.17;1.03;;;;;4.60;93352.00;;;;7398646;19;20141;-78
2023/03/25 01:44:51;;;;;;;5.93;1.13;;;;;4.50;93354.00;;;;7399329;19;20133;-78
2023/03/25 01:47:25;;;;;;;3.60;1.07;;;;;4.70;93350.00;;;;7399945;19;20192;-79
2023/03/25 01:49:53;;;;;;;7.80;1.30;;;;;4.70;93351.00;;;;7398300;19;20148;-79
2023/03/25 01:52:29;;;;;;;5.83;1.20;;;;;4.80;93355.00;;;;7397382;19;20205;-78
2023/03/25 01:55:04;;;;;;;7.43;1.47;;;;;4.80;93350.00;;;;7394395;19;20659;-77
2023/03/25 01:57:42;;;;;;;9.70;1.67;;;;;4.80;93337.00;;;;7398047;19;20140;-78
2023/03/25 02:00:12;;;;;;;4.83;1.13;;;;;4.80;93356.00;;;;7398978;19;20620;-78
2023/03/25 02:03:02;;;;;;;5.20;1.30;;;;;5.00;93358.00;;;;7391398;19;20192;-83
2023/03/25 02:05:48;;;;;;;3.50;1.60;;;;;4.90;93363.00;;;;7398732;19;20615;-82
2023/03/25 02:08:24;;;;;;;5.90;1.73;;;;;4.90;93359.00;;;;7398577;19;20180;-82
2023/03/25 02:10:52;;;;;;;10.17;1.70;;;;;4.90;93370.00;;;;7399100;19;20165;-82
2023/03/25 02:13:26;;;;;;;4.10;1.40;;;;;4.90;93378.00;;;;7393513;19;20137;-82
2023/03/25 02:16:10;;;;;;;6.60;1.53;;;;;4.80;93419.00;;;;7400192;19;20139;-82
2023/03/25 02:19:01;;;;;;;7.60;1.37;;;;;4.80;93419.00;;;;7399290;19;20154;-81
2023/03/25 02:22:10;;;;;;;10.60;1.37;;;;;4.50;93425.00;;;;7399483;19;20124;-83
2023/03/25 02:24:42;;;;;;;2.93;0.37;;;;;3.50;93437.00;;;;7396324;19;20575;-82
2023/03/25 02:27:54;;;;;;;2.87;0.50;;;;;3.10;93432.00;;;;7398637;19;20128;-82
2023/03/25 02:30:44;;;;;;;0.63;0.30;;;;;3.10;93433.00;;;;7397096;19;20144;-82
2023/03/25 02:33:45;;;;;;;3.30;0.47;;;;;3.10;93421.00;;;;7398660;19;20159;-80
2023/03/25 02:36:40;;;;;;;0.43;0.30;;;;;3.00;93410.00;;;;7398029;19;20211;-79
2023/03/25 02:39:21;;;;;;;3.10;0.40;;;;;3.20;93396.00;;;;7399559;19;20157;-85
2023/03/25 02:42:17;;;;;;;0.70;0.30;;;;;3.20;93387.00;;;;7399900;19;20534;-84
2023/03/25 02:44:53;;;;;;;1.20;0.80;;;;;3.30;93377.00;;;;7399433;19;20145;-80
2023/03/25 02:47:34;;;;;;;0.47;0.30;;;;;3.40;93370.00;;;;7400209;19;20145;-85
2023/03/25 02:50:27;;;;;;;1.97;0.73;;;;;3.50;93364.00;;;;7406544;19;20151;-85
2023/03/25 02:53:07;;;;;;;1.10;0.50;;;;;3.50;93350.00;;;;7407762;19;20132;-84
2023/03/25 02:55:42;;;;;;;1.43;0.83;;;;;3.60;93366.00;;;;7405834;19;20167;-83
2023/03/25 02:58:20;;;;;;;1.73;0.53;;;;;3.70;93362.00;;;;7407857;19;20139;-83
2023/03/25 03:00:50;;;;;;;1.67;0.50;;;;;3.80;93357.00;;;;7399368;19;20156;-84
2023/03/25 03:03:31;;;;;;;0.63;0.40;;;;;3.70;93348.00;;;;7402866;19;20131;-83
2023/03/25 03:06:01;;;;;;;2.20;0.70;;;;;3.80;93335.00;;;;7405373;19;20133;-86
2023/03/25 03:08:48;;;;;;;2.07;0.70;;;;;3.80;93344.00;;;;7405156;19;20139;-79
2023/03/25 03:11:51;;;;;;;1.57;0.70;;;;;3.90;93330.00;;;;7404020;19;20192;-84
2023/03/25 03:14:52;;;;;;;1.43;0.80;;;;;3.90;93340.00;;;;7406366;19;20633;-83
2023/03/25 03:18:02;;;;;;;2.63;0.87;;;;;3.80;93345.00;;;;7406108;19;20511;-82
2023/03/25 03:20:48;;;;;;;2.27;0.87;;;;;3.70;93333.00;;;;7401021;19;20148;-84
2023/03/25 03:23:35;;;;;;;4.70;0.80;;;;;3.80;93342.00;;;;7407494;19;20572;-84
2023/03/25 03:26:37;;;;;;;2.87;0.60;;;;;3.80;93352.00;;;;7406005;19;20147;-84
2023/03/25 03:29:26;;;;;;;2.57;0.90;;;;;3.80;93341.00;;;;7404839;19;20129;-84
2023/03/25 03:32:33;;;;;;;4.23;1.20;;;;;3.90;93344.00;;;;7403163;19;20615;-82
2023/03/25 03:35:07;;;;;;;3.90;0.67;;;;;3.80;93346.00;;;;7404265;19;20151;-82
2023/03/25 03:37:45;;;;;;;0.93;0.70;;;;;3.90;93341.00;;;;7406818;19;20486;-81
2023/03/25 03:40:22;;;;;;;3.00;0.70;;;;;3.80;93354.00;;;;7405435;19;20137;-82
2023/03/25 03:42:53;;;;;;;1.70;0.67;;;;;3.70;93336.00;;;;7405881;19;21003;-83
2023/03/25 03:46:03;;;;;;;4.97;0.90;;;;;3.80;93351.00;;;;7411018;19;20156;-82
2023/03/25 03:48:41;;;;;;;1.90;0.70;;;;;3.80;93333.00;;;;7403900;19;20203;-82
2023/03/25 03:51:28;;;;;;;3.93;1.27;;;;;3.80;93330.00;;;;7402359;19;20149;-80
2023/03/25 03:54:01;;;;;;;1.60;0.57;;;;;3.80;93329.00;;;;7401812;19;20491;-79
2023/03/25 03:56:45;;;;;;;8.07;1.20;;;;;3.80;93339.00;;;;7403336;19;20137;-81
2023/03/25 03:59:22;;;;;;;3.10;0.80;;;;;3.70;93347.00;;;;7403454;19;20634;-78
2023/03/25 04:02:02;;;;;;;2.90;0.93;;;;;3.80;93342.00;;;;7399502;19;20172;-84
2023/03/25 04:04:43;;;;;;;2.87;0.83;;;;;3.80;93359.00;;;;7404937;19;20133;-84
2023/03/25 04:07:26;;;;;;;2.40;0.73;;;;;3.70;93342.00;;;;7400926;19;20171;-82
2023/03/25 04:10:13;;;;;;;2.37;0.70;;;;;3.80;93360.00;;;;7398961;19;20209;-80
2023/03/25 04:12:51;;;;;;;2.37;0.80;;;;;3.70;93338.00;;;;7403931;19;20113;-82
2023/03/25 04:15:25;;;;;;;4.27;0.90;;;;;3.60;93362.00;;;;7402877;19;20474;-79
2023/03/25 04:18:00;;;;;;;3.90;1.10;;;;;3.70;93335.00;;;;7402505;19;20195;-81
2023/03/25 04:20:35;;;;;;;2.30;0.93;;;;;3.60;93346.00;;;;7400982;19;20483;-81
2023/03/25 04:23:04;;;;;;;6.90;1.27;;;;;3.60;93340.00;;;;7401365;19;20224;-81
2023/03/25 04:25:37;;;;;;;3.60;0.90;;;;;3.70;93321.00;;;;7401606;19;20140;-81
2023/03/25 04:28:06;;;;;;;6.53;1.40;;;;;3.50;93349.00;;;;7400034;19;20657;-83
2023/03/25 04:30:40;;;;;;;4.93;1.20;;;;;3.60;93333.00;;;;7400120;19;20128;-82
2023/03/25 04:33:14;;;;;;;6.83;1.03;;;;;3.70;93328.00;;;;7400529;19;20175;-82
2023/03/25 04:35:42;;;;;;;3.63;0.93;;;;;3.60;93327.00;;;;7399603;19;20752;-82
2023/03/25 04:38:18;;;;;;;5.73;1.17;;;;;3.60;93344.00;;;;7398309;19;20144;-81
2023/03/25 04:40:46;;;;;;;2.87;1.00;;;;;3.70;93336.00;;;;7396581;19;20461;-78
2023/03/25 04:43:19;;;;;;;7.20;1.40;;;;;3.70;93331.00;;;;7400440;19;20227;-79
2023/03/25 04:45:52;;;;;;;7.20;1.10;;;;;3.80;93329.00;;;;7398123;19;20491;-80
2023/03/25 04:48:29;;;;;;;6.50;1.00;;;;;3.90;93330.00;;;;7401251;19;20532;-78
2023/03/25 04:51:02;;;;;;;4.50;1.20;;;;;3.90;93332.00;;;;7402950;19;20512;-83
2023/03/25 04:53:37;;;;;;;3.50;1.23;;;;;3.90;93341.00;;;;7400037;19;20148;-82
2023/03/25 04:56:11;;;;;;;8.27;1.40;;;;;3.90;93350.00;;;;7399699;19;20152;-83
2023/03/25 04:58:46;;;;;;;6.10;1.33;;;;;4.10;93358.00;;;;7399901;19;20129;-83
2023/03/25 05:01:36;;;;;;;4.17;1.13;;;;;4.30;93344.00;;;;7396061;19;20180;-83
2023/03/25 05:04:05;;;;;;;5.00;0.90;;;;;4.30;93369.00;;;;7403382;19;20631;-81
2023/03/25 05:06:42;;;;;;;5.07;1.40;;;;;4.40;93352.00;;;;7400111;19;20152;-83
2023/03/25 05:09:16;;;;;;;10.20;1.60;;;;;4.30;93354.00;;;;7400917;19;20630;-81
2023/03/25 05:11:51;;;;;;;4.63;1.60;;;;;4.40;93331.00;;;;7399758;19;20591;-80
2023/03/25 05:14:21;;;;;;;3.90;1.00;;;;;4.40;93347.00;;;;7400944;19;20145;-80
2023/03/25 05:16:58;;;;;;;5.80;1.07;;;;;4.50;93381.00;;;;7402345;19;20493;-81
2023/03/25 05:19:33;;;;;;;7.03;1.40;;;;;4.30;93362.00;;;;7400326;19;20144;-81
2023/03/25 05:22:03;;;;;;;5.63;1.33;;;;;4.40;93368.00;;;;7400078;19;20181;-83
2023/03/25 05:24:38;;;;;;;4.53;1.20;;;;;4.40;93358.00;;;;7402144;19;20682;-81
2023/03/25 05:27:05;;;;;;;3.73;1.07;;;;;4.30;93368.00;;;;7398913;19;20538;-82
2023/03/25 05:29:43;;;;;;;4.10;1.23;;;;;4.40;93365.00;;;;7401655;19;20192;-82
2023/03/25 05:32:16;;;;;;;4.57;1.20;;;;;4.30;93365.00;;;;7400736;19;20204;-82
2023/03/25 05:34:52;;;;;;;6.87;1.10;;;;;4.30;93374.00;;;;7397847;19;20148;-81
2023/03/25 05:37:26;;;;;;;8.47;1.70;;;;;4.20;93384.00;;;;7394709;19;20158;-79
2023/03/25 05:39:53;;;;;;;5.87;1.07;;;;;4.20;93371.00;;;;7396341;19;20176;-82
2023/03/25 05:42:27;;;;;;;5.00;1.47;;;;;4.20;93398.00;;;;7394358;19;20152;-83
2023/03/25 05:44:56;;;;;;;6.40;0.97;;;;;4.30;93402.00;;;;7401494;19;20495;-83
2023/03/25 05:47:30;;;;;;;9.20;1.43;;;;;4.40;93395.00;;;;7396550;19;20158;-82
2023/03/25 05:50:05;;;;;;;6.67;1.63;;;;;4.50;93407.00;;;;7397436;19;20135;-84
2023/03/25 05:52:40;;;;;;;7.43;1.47;;;;;4.50;93411.00;;;;7400161;19;20490;-83
2023/03/25 05:55:16;;;;;;;5.03;1.20;;;;;4.40;93414.00;;;;7398242;19;20145;-84
2023/03/25 05:57:51;;;;;;;6.07;1.47;;;;;4.50;93398.00;;;;7401414;19;20144;-85
2023/03/25 06:00:20;;;;;;;4.70;1.20;;;;;4.70;93427.00;;;;7400645;19;20147;-86
2023/03/25 06:02:57;;;;;;;9.90;1.80;;;;;4.90;93423.00;;;;7399084;19;20207;-85
2023/03/25 06:05:32;;;;;;;6.17;1.20;;;;;4.50;93397.00;;;;7399007;19;20147;-85
2023/03/25 06:08:10;;;;;;;2.77;1.10;;;;;4.10;93432.00;;;;7399573;19;20156;-86
2023/03/25 06:10:44;;;;;;;5.00;1.30;;;;;4.10;93423.00;;;;7398675;19;20508;-85
2023/03/25 06:13:19;;;;;;;5.37;1.50;;;;;4.00;93421.00;;;;7399765;19;20155;-82
2023/03/25 06:15:46;;;;;;;8.20;1.13;;;;;4.00;93423.00;;;;7396569;19;20168;-82
2023/03/25 06:18:23;;;;;;;4.93;1.13;;;;;4.10;93419.00;;;;7398184;19;20148;-83
2023/03/25 06:20:59;;;;;;;7.73;1.67;;;;;4.30;93423.00;;;;7397289;19;20144;-85
2023/03/25 06:23:34;;;;;;;6.63;2.03;;;;;4.40;93429.00;;;;7397414;19;20512;-86
2023/03/25 06:26:03;;;;;;;9.17;1.50;;;;;4.50;93427.00;;;;7397420;19;20149;-86
2023/03/25 06:28:38;;;;;;;5.73;1.20;;;;;4.60;93417.00;;;;7396953;19;20128;-86
2023/03/25 06:31:25;;;;;;;7.83;1.40;;;;;4.80;93419.00;;;;7396926;19;20496;-84
2023/03/25 06:34:01;;;;;;;8.27;1.50;;;;;5.00;93415.00;;;;7398226;19;20145;-84
2023/03/25 06:36:30;;;;;;;6.60;1.60;;;;;5.30;93413.00;;;;7400293;19;20142;-85
2023/03/25 06:39:04;;;;;;;10.47;1.60;;;;;5.50;93420.00;;;;7399579;19;20188;-83
2023/03/25 06:41:36;;;;;;;7.07;1.30;;;;;5.50;93424.00;;;;7396709;19;20169;-83
2023/03/25 06:44:10;;;;;;;7.00;1.23;;;;;5.30;93421.00;;;;7400144;19;20149;-84
2023/03/25 06:46:51;;;;;;;4.13;1.50;;;;;5.10;93429.00;;;;7387168;19;20436;-84
2023/03/25 06:49:25;;;;;;;4.23;1.00;;;;;5.20;93443.00;;;;7393617;19;20148;-83
2023/03/25 06:51:59;;;;;;;4.47;1.20;;;;;5.60;93443.00;;;;7399288;19;20514;-83
2023/03/25 06:54:29;;;;;;;3.67;1.23;;;;;5.70;93442.00;;;;7406325;19;20614;-82
2023/03/25 06:57:05;;;;;;;2.87;1.00;;;;;5.30;93427.00;;;;7409248;19;20152;-87
2023/03/25 06:59:33;;;;;;;1.33;0.70;;;;;5.10;93428.00;;;;7406979;19;20145;-85
2023/03/25 07:02:00;;;;;;;4.57;0.87;;;;;5.20;93432.00;;;;7393457;19;20181;-84
2023/03/25 07:04:41;;;;;;;4.83;1.07;;;;;5.40;93446.00;;;;7394698;19;20125;-84
2023/03/25 07:07:10;;;;;;;1.57;0.70;;;;;5.70;93445.00;;;;7395665;19;20144;-87
2023/03/25 07:09:49;;;;;;;2.63;0.93;;;;;6.20;93445.00;;;;7397983;19;20552;-86
2023/03/25 07:12:17;;;;;;;5.40;0.77;;;;;6.60;93445.00;;;;7395692;19;20141;-85
2023/03/25 07:14:53;;;;;;;3.50;0.70;;;;;6.50;93441.00;;;;7398493;19;20181;-86
2023/03/25 07:17:22;;;;;;;1.00;0.60;;;;;6.80;93441.00;;;;7396117;19;20155;-86
2023/03/25 07:19:57;;;;;;;4.13;1.20;;;;;6.50;93454.00;;;;7396613;19;20516;-87
2023/03/25 07:22:32;;;;;;;3.33;1.00;;;;;6.60;93446.00;;;;7398194;19;20471;-86
2023/03/25 07:25:07;;;;;;;2.40;1.10;;;;;6.70;93449.00;;;;7399533;19;20128;-87
2023/03/25 07:27:35;;;;;;;5.40;1.20;;;;;7.10;93458.00;;;;7396282;19;20611;-86
2023/03/25 07:30:10;;;;;;;4.10;1.10;;;;;6.90;93452.00;;;;7396589;19;20136;-86
2023/03/25 07:32:38;;;;;;;2.30;0.73;;;;;6.80;93464.00;;;;7399439;19;20207;-84
2023/03/25 07:35:13;;;;;;;3.63;0.90;;;;;6.80;93470.00;;;;7398375;19;20140;-86
2023/03/25 07:37:59;;;;;;;3.40;1.20;;;;;6.60;93468.00;;;;7404569;19;20208;-83
2023/03/25 07:40:40;;;;;;;3.17;0.90;;;;;6.40;93461.00;;;;7405257;19;20153;-84
2023/03/25 07:43:08;;;;;;;4.73;0.80;;;;;6.40;93470.00;;;;7402723;19;20145;-84
2023/03/25 07:45:57;;;;;;;2.40;1.00;;;;;6.50;93471.00;;;;7399626;19;20611;-85
2023/03/25 07:48:32;;;;;;;4.20;1.20;;;;;6.40;93470.00;;;;7403189;19;20160;-86
2023/03/25 07:51:07;;;;;;;4.33;1.07;;;;;6.50;93472.00;;;;7403393;19;20579;-86
2023/03/25 07:53:37;;;;;;;2.40;0.77;;;;;6.40;93478.00;;;;7404268;19;20468;-86
2023/03/25 07:56:12;;;;;;;1.87;0.80;;;;;6.80;93470.00;;;;7399963;19;20813;-84
2023/03/25 07:58:41;;;;;;;3.80;1.17;;;;;6.30;93472.00;;;;7402015;19;20148;-88
2023/03/25 08:01:14;;;;;;;1.57;0.87;;;;;6.40;93468.00;;;;7399325;19;20196;-86
2023/03/25 08:03:51;;;;;;;2.27;0.73;;;;;6.30;93473.00;;;;7400560;19;20852;-88
2023/03/25 08:06:26;;;;;;;2.27;0.57;;;;;6.30;93473.00;;;;7406779;19;20121;-88
2023/03/25 08:08:54;;;;;;;3.13;1.00;;;;;6.10;93486.00;;;;7398051;19;20140;-88
2023/03/25 08:11:29;;;;;;;1.97;0.80;;;;;6.00;93475.00;;;;7404008;19;20132;-85
2023/03/25 08:14:01;;;;;;;4.33;1.00;;;;;5.80;93495.00;;;;7400878;19;20517;-84
2023/03/25 08:16:36;;;;;;;3.27;0.90;;;;;5.50;93493.00;;;;7398905;19;20177;-85
2023/03/25 08:19:04;;;;;;;2.07;0.93;;;;;5.30;93466.00;;;;7403667;19;20129;-83
2023/03/25 08:21:39;;;;;;;3.27;0.87;;;;;5.10;93468.00;;;;7404429;19;20128;-86
2023/03/25 08:24:14;;;;;;;2.10;0.50;;;;;5.10;93478.00;;;;7403970;19;20141;-83
2023/03/25 08:26:48;;;;;;;6.10;0.87;;;;;5.20;93487.00;;;;7401917;19;20140;-83
2023/03/25 08:29:17;;;;;;;3.03;0.90;;;;;5.00;93487.00;;;;7404047;19;20156;-84
2023/03/25 08:31:51;;;;;;;2.77;0.63;;;;;4.90;93486.00;;;;7403645;19;20154;-85
2023/03/25 08:34:26;;;;;;;2.67;0.90;;;;;4.80;93496.00;;;;7402471;19;20145;-87
2023/03/25 08:37:00;;;;;;;2.53;0.40;;;;;4.40;93500.00;;;;7396772;19;20148;-82
2023/03/25 08:39:28;;;;;;;0.67;0.20;;;;;4.40;93499.00;;;;7398278;19;20149;-86
2023/03/25 08:42:02;;;;;;;1.17;0.30;;;;;4.20;93490.00;;;;7398114;19;20132;-85
2023/03/25 08:44:37;;;;;;;0.87;0.33;;;;;4.60;93468.00;;;;7397637;19;20125;-84
2023/03/25 08:47:12;;;;;;;0.10;0.10;;;;;5.30;93479.00;;;;7390822;19;20196;-76
2023/03/25 08:49:46;;;;;;;0.63;0.40;;;;;5.60;93467.00;;;;7398618;19;20176;-73
2023/03/25 08:52:22;;;;;;;0.30;0.30;;;;;5.60;93457.00;;;;7399896;19;20136;-76
2023/03/25 08:54:49;;;;;;;0.40;0.30;;;;;6.50;93451.00;;;;7398224;19;20163;-74
2023/03/25 08:57:24;;;;;;;0.57;0.10;;;;;7.00;93459.00;;;;7399904;19;20147;-75
2023/03/25 08:59:52;;;;;;;0.13;0.13;;;;;6.90;93457.00;;;;7399038;19;20208;-76
2023/03/25 09:02:27;;;;;;;0.40;0.20;;;;;6.70;93467.00;;;;7393691;19;20172;-75
2023/03/25 09:05:02;;;;;;;0.33;0.20;;;;;6.00;93456.00;;;;7397816;19;20148;-75
2023/03/25 09:07:38;;;;;;;0.40;0.23;;;;;5.80;93475.00;;;;7394081;19;20133;-76
2023/03/25 09:10:13;;;;;;;0.37;0.33;;;;;5.90;93462.00;;;;7393618;19;20124;-74
2023/03/25 09:12:47;;;;;;;0.07;0.07;;;;;6.10;93471.00;;;;7393559;19;20247;-74
2023/03/25 09:15:14;;;;;;;0.10;0.10;;;;;6.20;93462.00;;;;7396158;19;20157;-74
2023/03/25 09:17:48;;;;;;;1.60;0.20;;;;;6.50;93457.00;;;;7398486;19;20693;-77
2023/03/25 09:20:17;;;;;;;0.27;0.27;;;;;6.70;93377.00;;;;7398785;19;20204;-76
2023/03/25 09:22:51;;;;;;;0.47;0.20;;;;;7.10;93460.00;;;;7400215;19;20128;-75
2023/03/25 09:25:26;;;;;;;0.33;0.30;;;;;6.30;93467.00;;;;7400695;19;20635;-77
2023/03/25 09:28:01;;;;;;;1.37;0.60;;;;;6.00;93468.00;;;;7398867;19;20136;-74
2023/03/25 09:30:29;;;;;;;0.37;0.37;;;;;6.30;93452.00;;;;7399970;19;20469;-74
2023/03/25 09:33:03;;;;;;;0.27;0.20;;;;;6.40;93451.00;;;;7399837;19;20128;-75
2023/03/25 09:35:40;;;;;;;0.83;0.50;;;;;6.20;93451.00;;;;7397544;19;20195;-76
2023/03/25 09:38:14;;;;;;;2.27;0.40;;;;;6.50;93451.00;;;;7398894;19;20156;-74
2023/03/25 09:40:43;;;;;;;1.93;0.30;;;;;6.50;93459.00;;;;7398624;19;20133;-75
2023/03/25 09:43:31;;;;;;;1.23;0.50;;;;;6.80;93431.00;;;;7391615;19;20603;-75
2023/03/25 09:46:00;;;;;;;2.80;0.47;;;;;7.10;93435.00;;;;7396064;19;20132;-75
2023/03/25 09:48:51;;;;;;;1.07;0.60;;;;;7.20;93400.00;;;;7396659;19;20139;-77
2023/03/25 09:51:27;;;;;;;1.13;0.60;;;;;7.70;93429.00;;;;7398283;19;20475;-74
2023/03/25 09:54:28;;;;;;;1.40;0.40;;;;;7.50;93439.00;;;;7398498;19;20599;-76
2023/03/25 09:57:13;;;;;;;3.53;1.00;;;;;7.50;93430.00;;;;7398151;19;20218;-74
2023/03/25 09:59:55;;;;;;;0.93;0.30;;;;;7.90;93444.00;;;;7397797;19;20144;-75
2023/03/25 10:02:53;;;;;;;3.03;0.70;;;;;8.00;93420.00;;;;7391022;19;20573;-75
2023/03/25 10:05:47;;;;;;;1.50;0.70;;;;;9.40;93428.00;;;;7395318;19;20474;-77
2023/03/25 10:08:46;;;;;;;3.70;0.82;;;;;8.90;93425.00;;;;7397315;19;20129;-74
2023/03/25 10:11:24;;;;;;;0.80;0.50;;;;;7.80;93412.00;;;;7396956;19;20152;-75
2023/03/25 10:14:12;;;;;;;1.80;0.60;;;;;9.20;93421.00;;;;7395229;19;20140;-75
2023/03/25 10:16:56;;;;;;;2.95;0.77;;;;;9.20;93444.00;;;;7396301;19;20151;-75
2023/03/25 10:19:50;;;;;;;2.25;0.50;;;;;9.40;93443.00;;;;7399130;19;20461;-75
2023/03/25 10:22:55;;;;;;;0.73;0.38;;;;;8.20;93469.00;;;;7393163;19;20139;-77
2023/03/25 10:25:28;;;;;;;0.73;0.30;;;;;7.30;93473.00;;;;7396752;19;20148;-77
2023/03/25 10:28:06;;;;;;;2.83;0.40;;;;;6.80;93475.00;;;;7397584;19;20131;-74
2023/03/25 10:30:41;;;;;;;1.63;0.40;;;;;6.30;93481.00;;;;7396448;19;20150;-75
2023/03/25 10:33:32;;;;;;;1.90;0.23;;;;;6.20;93476.00;;;;7395945;19;20120;-74
2023/03/25 10:36:01;;;;;;;0.20;0.20;;;;;6.40;93471.00;;;;7397050;19;20200;-72
2023/03/25 10:38:36;;;;;;;2.53;0.70;;;;;7.40;93448.00;;;;7397657;19;20156;-75
2023/03/25 10:41:23;;;;;;;1.70;0.50;;;;;7.70;93447.00;;;;7393114;19;21977;-76
2023/03/25 10:43:56;;;;;;;2.70;0.80;;;;;8.10;93454.00;;;;7390087;19;20135;-74
2023/03/25 10:47:01;;;;;;;1.70;0.50;;;;;8.70;93477.00;;;;7395487;19;20136;-78
2023/03/25 10:49:40;;;;;;;1.90;0.50;;;;;7.80;93487.00;;;;7393519;19;20151;-77
2023/03/25 10:52:15;;;;;;;1.67;0.80;;;;;7.10;93491.00;;;;7394185;19;20170;-75
2023/03/25 10:54:53;;;;;;;2.17;0.60;;;;;7.00;93458.00;;;;7395275;19;20219;-77
2023/03/25 10:57:28;;;;;;;2.70;0.90;;;;;8.50;93437.00;;;;7392246;19;20145;-76
2023/03/25 11:00:17;;;;;;;1.00;0.70;;;;;8.40;93485.00;;;;7396500;19;20150;-77
2023/03/25 11:02:46;;;;;;;3.10;0.57;;;;;9.10;93447.00;;;;7391852;19;20148;-78
2023/03/25 11:05:24;;;;;;;3.03;0.70;;;;;9.30;93461.00;;;;7396590;19;20148;-75
2023/03/25 11:08:04;;;;;;;2.70;0.93;;;;;8.80;93471.00;;;;7396292;19;20157;-76
2023/03/25 11:10:55;;;;;;;2.67;0.80;;;;;8.50;93447.00;;;;7404793;19;20588;-76
2023/03/25 11:13:31;;;;;;;2.67;0.90;;;;;9.50;93447.00;;;;7401634;19;20591;-78
2023/03/25 11:16:07;;;;;;;1.43;0.80;;;;;9.80;93424.00;;;;7401651;19;20117;-77
2023/03/25 11:18:41;;;;;;;2.65;0.88;;;;;10.40;93482.00;;;;7402772;19;20586;-78
2023/03/25 11:21:13;;;;;;;3.20;1.02;;;;;8.30;93458.00;;;;7399609;19;20536;-75
2023/03/25 11:23:49;;;;;;;3.90;1.08;;;;;8.50;93440.00;;;;7401006;19;20579;-76
2023/03/25 11:26:25;;;;;;;3.88;0.82;;;;;9.00;93451.00;;;;7400096;19;20622;-75
2023/03/25 11:29:14;;;;;;;2.40;0.80;;;;;9.30;93469.00;;;;7403115;19;20156;-76
2023/03/25 11:31:42;;;;;;;0.93;0.55;;;;;8.90;93483.00;;;;7401844;19;20156;-76
2023/03/25 11:34:21;;;;;;;2.57;0.70;;;;;7.60;93494.00;;;;7399317;19;20159;-76
2023/03/25 11:37:05;;;;;;;3.43;1.00;;;;;7.10;93497.00;;;;7401904;19;20583;-76
2023/03/25 11:39:41;;;;;;;2.63;0.90;;;;;6.80;93491.00;;;;7395365;19;20135;-75
2023/03/25 11:42:16;;;;;;;5.47;1.07;;;;;7.20;93473.00;;;;7400695;19;20164;-76
2023/03/25 11:44:53;;;;;;;1.37;0.77;;;;;7.40;93466.00;;;;7396114;19;20156;-75
2023/03/25 11:47:45;;;;;;;2.87;0.83;;;;;7.70;93452.00;;;;7399781;19;20538;-76
2023/03/25 11:50:25;;;;;;;2.20;0.80;;;;;8.30;93447.00;;;;7399847;19;20137;-76
2023/03/25 11:53:02;;;;;;;2.03;0.80;;;;;8.50;93462.00;;;;7402691;19;20472;-77
2023/03/25 11:55:46;;;;;;;5.10;0.70;;;;;8.60;93441.00;;;;7401662;19;20519;-75
2023/03/25 11:58:30;;;;;;;2.43;0.60;;;;;9.30;93430.00;;;;7397481;19;20140;-77
2023/03/25 12:01:24;;;;;;;2.23;0.70;;;;;9.90;93464.00;;;;7397321;19;20172;-76
2023/03/25 12:04:04;;;;;;;1.50;0.90;;;;;9.60;93465.00;;;;7400652;19;20248;-75
2023/03/25 12:07:08;;;;;;;2.63;0.80;;;;;8.30;93503.00;;;;7401080;19;20204;-75
2023/03/25 12:09:37;;;;;;;0.93;0.70;;;;;7.60;93489.00;;;;7399360;19;20137;-76
2023/03/25 12:12:57;;;;;;;0.70;0.60;;;;;7.30;93429.00;;;;7398421;19;20594;-77
2023/03/25 12:15:51;;;;;;;1.03;0.70;;;;;6.90;93506.00;;;;7400931;19;20264;-76
2023/03/25 12:18:58;;;;;;;2.53;0.97;;;;;6.20;93547.00;;;;7395278;19;20131;-74
2023/03/25 12:21:47;;;;;;;1.20;0.50;;;;;5.00;93547.00;;;;7398862;19;20212;-75
2023/03/25 12:24:35;;;;;;;1.40;0.70;;;;;5.40;93504.00;;;;7397081;19;20612;-75
2023/03/25 12:27:21;;;;;;;1.67;0.60;;;;;6.70;93467.00;;;;7400001;19;20489;-76
2023/03/25 12:30:17;;;;;;;1.67;0.60;;;;;7.70;93488.00;;;;7397166;19;20136;-76
2023/03/25 12:33:20;;;;;;;3.53;0.90;;;;;8.10;93474.00;;;;7397709;19;20137;-79
2023/03/25 12:36:26;;;;;;;0.63;0.33;;;;;8.90;93445.00;;;;7398020;19;20132;-76
2023/03/25 12:39:27;;;;;;;3.13;0.77;;;;;10.10;93432.00;;;;7397185;19;20160;-76
2023/03/25 12:42:15;;;;;;;3.30;0.70;;;;;10.00;93461.00;;;;7393532;19;20140;-76
2023/03/25 12:45:01;;;;;;;1.88;0.90;;;;;8.50;93471.00;;;;7394767;19;20125;-78
2023/03/25 12:47:41;;;;;;;1.40;0.60;;;;;7.90;93467.00;;;;7395580;19;20176;-78
2023/03/25 12:50:26;;;;;;;1.63;0.80;;;;;7.20;93447.00;;;;7396083;19;20145;-78
2023/03/25 12:53:22;;;;;;;2.30;1.10;;;;;7.40;93446.00;;;;7399649;19;20144;-76
2023/03/25 12:56:21;;;;;;;2.67;0.70;;;;;8.40;93420.00;;;;7399408;19;20623;-76
2023/03/25 12:59:11;;;;;;;1.67;0.60;;;;;8.90;93437.00;;;;7399015;19;20590;-78
2023/03/25 13:02:11;;;;;;;2.07;0.90;;;;;9.10;93439.00;;;;7395402;19;20191;-77
2023/03/25 13:05:27;;;;;;;3.20;0.80;;;;;8.60;93443.00;;;;7401035;19;20144;-75
2023/03/25 13:08:36;;;;;;;4.70;1.20;;;;;9.20;93448.00;;;;7397183;19;20145;-79
2023/03/25 13:11:14;;;;;;;2.42;0.82;;;;;9.90;93429.00;;;;7397313;19;20156;-78
2023/03/25 13:13:52;;;;;;;1.00;0.60;;;;;8.60;93464.00;;;;7401814;19;20129;-77
2023/03/25 13:16:30;;;;;;;1.75;0.70;;;;;9.40;93425.00;;;;7398559;19;20490;-75
2023/03/25 13:19:21;;;;;;;2.30;0.90;;;;;9.70;93431.00;;;;7398798;19;20603;-75
2023/03/25 13:22:23;;;;;;;1.20;0.80;;;;;10.80;93443.00;;;;7398171;19;20148;-77
2023/03/25 13:25:07;;;;;;;3.13;0.82;;;;;9.10;93427.00;;;;7394338;19;20145;-75